sensor_id;sensor_type;location;lat;lon;timestamp;P1;durP1;ratioP1;P2;durP2;ratioP2
11211;SDS011;5663;50.864;12.096;2023-07-13T00:05:18;2.08;;;1.30;;
11211;SDS011;5663;50.864;12.096;2023-07-13T00:07:48;2.17;;;1.48;;
11211;SDS011;5663;50.864;12.096;2023-07-13T00:10:22;3.30;;;1.58;;
11211;SDS011;5663;50.864;12.096;2023-07-13T00:12:57;1.85;;;1.42;;
11211;SDS011;5663;50.864;12.096;2023-07-13T00:18:40;1.83;;;1.40;;
11211;SDS011;5663;50.864;12.096;2023-07-13T00:21:14;1.58;;;1.40;;
11211;SDS011;5663;50.864;12.096;2023-07-13T00:23:50;3.40;;;1.50;;
11211;SDS011;5663;50.864;12.096;2023-07-13T00:26:20;4.85;;;1.45;;
11211;SDS011;5663;50.864;12.096;2023-07-13T00:28:52;1.75;;;1.20;;
11211;SDS011;5663;50.864;12.096;2023-07-13T00:31:21;2.53;;;1.60;;
11211;SDS011;5663;50.864;12.096;2023-07-13T00:34:02;1.35;;;1.25;;
11211;SDS011;5663;50.864;12.096;2023-07-13T00:36:36;4.13;;;1.30;;
11211;SDS011;5663;50.864;12.096;2023-07-13T00:39:13;1.80;;;1.42;;
11211;SDS011;5663;50.864;12.096;2023-07-13T00:41:53;2.00;;;1.80;;
11211;SDS011;5663;50.864;12.096;2023-07-13T00:44:23;1.65;;;1.50;;
11211;SDS011;5663;50.864;12.096;2023-07-13T00:46:52;2.60;;;1.55;;
11211;SDS011;5663;50.864;12.096;2023-07-13T00:49:23;2.85;;;1.60;;
11211;SDS011;5663;50.864;12.096;2023-07-13T00:51:58;2.47;;;1.40;;
11211;SDS011;5663;50.864;12.096;2023-07-13T00:54:40;2.33;;;1.65;;
11211;SDS011;5663;50.864;12.096;2023-07-13T00:57:15;1.63;;;1.30;;
11211;SDS011;5663;50.864;12.096;2023-07-13T00:59:54;4.28;;;1.65;;
11211;SDS011;5663;50.864;12.096;2023-07-13T01:02:28;3.00;;;1.70;;
11211;SDS011;5663;50.864;12.096;2023-07-13T01:05:00;3.03;;;1.77;;
11211;SDS011;5663;50.864;12.096;2023-07-13T01:07:37;2.25;;;1.50;;
11211;SDS011;5663;50.864;12.096;2023-07-13T01:13:08;2.15;;;1.35;;
11211;SDS011;5663;50.864;12.096;2023-07-13T01:15:49;1.50;;;1.40;;
11211;SDS011;5663;50.864;12.096;2023-07-13T01:18:22;2.80;;;1.73;;
11211;SDS011;5663;50.864;12.096;2023-07-13T01:20:57;2.10;;;1.50;;
11211;SDS011;5663;50.864;12.096;2023-07-13T01:23:28;3.08;;;1.60;;
11211;SDS011;5663;50.864;12.096;2023-07-13T01:26:19;1.42;;;1.33;;
11211;SDS011;5663;50.864;12.096;2023-07-13T01:29:07;2.58;;;1.30;;
11211;SDS011;5663;50.864;12.096;2023-07-13T01:31:37;2.00;;;1.50;;
11211;SDS011;5663;50.864;12.096;2023-07-13T01:34:12;5.18;;;1.60;;
11211;SDS011;5663;50.864;12.096;2023-07-13T01:36:43;3.10;;;1.63;;
11211;SDS011;5663;50.864;12.096;2023-07-13T01:39:14;1.60;;;1.50;;
11211;SDS011;5663;50.864;12.096;2023-07-13T01:41:48;2.57;;;1.60;;
11211;SDS011;5663;50.864;12.096;2023-07-13T01:44:45;1.70;;;1.53;;
11211;SDS011;5663;50.864;12.096;2023-07-13T01:47:22;2.55;;;1.42;;
11211;SDS011;5663;50.864;12.096;2023-07-13T01:50:17;2.95;;;1.70;;
11211;SDS011;5663;50.864;12.096;2023-07-13T01:53:17;4.77;;;1.87;;
11211;SDS011;5663;50.864;12.096;2023-07-13T01:56:05;1.87;;;1.47;;
11211;SDS011;5663;50.864;12.096;2023-07-13T01:58:58;1.60;;;1.50;;
11211;SDS011;5663;50.864;12.096;2023-07-13T02:01:32;2.13;;;1.50;;
11211;SDS011;5663;50.864;12.096;2023-07-13T02:04:08;2.70;;;1.80;;
11211;SDS011;5663;50.864;12.096;2023-07-13T02:06:49;2.70;;;1.60;;
11211;SDS011;5663;50.864;12.096;2023-07-13T02:09:20;4.80;;;1.70;;
11211;SDS011;5663;50.864;12.096;2023-07-13T02:11:49;3.33;;;2.03;;
11211;SDS011;5663;50.864;12.096;2023-07-13T02:14:20;1.53;;;1.43;;
11211;SDS011;5663;50.864;12.096;2023-07-13T02:16:50;2.20;;;2.00;;
11211;SDS011;5663;50.864;12.096;2023-07-13T02:19:23;2.73;;;1.50;;
11211;SDS011;5663;50.864;12.096;2023-07-13T02:21:53;1.93;;;1.73;;
11211;SDS011;5663;50.864;12.096;2023-07-13T02:24:28;1.80;;;1.43;;
11211;SDS011;5663;50.864;12.096;2023-07-13T02:27:00;3.40;;;1.80;;
11211;SDS011;5663;50.864;12.096;2023-07-13T02:29:33;3.70;;;1.77;;
11211;SDS011;5663;50.864;12.096;2023-07-13T02:32:09;3.30;;;1.97;;
11211;SDS011;5663;50.864;12.096;2023-07-13T02:34:40;3.13;;;1.80;;
11211;SDS011;5663;50.864;12.096;2023-07-13T02:37:11;1.87;;;1.70;;
11211;SDS011;5663;50.864;12.096;2023-07-13T02:39:45;2.57;;;1.97;;
11211;SDS011;5663;50.864;12.096;2023-07-13T02:42:19;5.63;;;2.00;;
11211;SDS011;5663;50.864;12.096;2023-07-13T02:44:52;3.00;;;2.20;;
11211;SDS011;5663;50.864;12.096;2023-07-13T02:47:20;3.43;;;1.93;;
11211;SDS011;5663;50.864;12.096;2023-07-13T02:49:49;1.97;;;1.40;;
11211;SDS011;5663;50.864;12.096;2023-07-13T02:52:21;2.10;;;1.90;;
11211;SDS011;5663;50.864;12.096;2023-07-13T02:55:01;2.00;;;1.80;;
11211;SDS011;5663;50.864;12.096;2023-07-13T02:57:43;2.23;;;1.80;;
11211;SDS011;5663;50.864;12.096;2023-07-13T03:00:22;2.00;;;1.40;;
11211;SDS011;5663;50.864;12.096;2023-07-13T03:02:52;3.53;;;2.00;;
11211;SDS011;5663;50.864;12.096;2023-07-13T03:05:28;3.63;;;2.00;;
11211;SDS011;5663;50.864;12.096;2023-07-13T03:07:58;2.67;;;2.00;;
11211;SDS011;5663;50.864;12.096;2023-07-13T03:10:43;3.83;;;1.87;;
11211;SDS011;5663;50.864;12.096;2023-07-13T03:13:26;2.53;;;2.00;;
11211;SDS011;5663;50.864;12.096;2023-07-13T03:15:57;5.53;;;2.10;;
11211;SDS011;5663;50.864;12.096;2023-07-13T03:18:32;2.07;;;1.80;;
11211;SDS011;5663;50.864;12.096;2023-07-13T03:21:02;2.50;;;1.83;;
11211;SDS011;5663;50.864;12.096;2023-07-13T03:23:33;1.87;;;1.77;;
11211;SDS011;5663;50.864;12.096;2023-07-13T03:26:06;8.30;;;2.20;;
11211;SDS011;5663;50.864;12.096;2023-07-13T03:28:38;2.93;;;2.10;;
11211;SDS011;5663;50.864;12.096;2023-07-13T03:31:10;4.43;;;2.20;;
11211;SDS011;5663;50.864;12.096;2023-07-13T03:33:42;3.80;;;1.83;;
11211;SDS011;5663;50.864;12.096;2023-07-13T03:36:23;3.10;;;2.30;;
11211;SDS011;5663;50.864;12.096;2023-07-13T03:38:53;3.17;;;1.80;;
11211;SDS011;5663;50.864;12.096;2023-07-13T03:41:29;3.27;;;2.00;;
11211;SDS011;5663;50.864;12.096;2023-07-13T03:43:59;3.83;;;2.10;;
11211;SDS011;5663;50.864;12.096;2023-07-13T03:46:29;2.73;;;2.20;;
11211;SDS011;5663;50.864;12.096;2023-07-13T03:48:59;3.37;;;2.10;;
11211;SDS011;5663;50.864;12.096;2023-07-13T03:51:28;4.27;;;2.50;;
11211;SDS011;5663;50.864;12.096;2023-07-13T03:53:57;3.27;;;2.10;;
11211;SDS011;5663;50.864;12.096;2023-07-13T03:56:32;3.60;;;2.10;;
11211;SDS011;5663;50.864;12.096;2023-07-13T03:59:00;2.80;;;2.37;;
11211;SDS011;5663;50.864;12.096;2023-07-13T04:01:30;2.00;;;1.73;;
11211;SDS011;5663;50.864;12.096;2023-07-13T04:04:00;4.03;;;2.53;;
11211;SDS011;5663;50.864;12.096;2023-07-13T04:06:29;3.83;;;2.00;;
11211;SDS011;5663;50.864;12.096;2023-07-13T04:09:04;5.03;;;2.17;;
11211;SDS011;5663;50.864;12.096;2023-07-13T04:11:36;3.43;;;2.20;;
11211;SDS011;5663;50.864;12.096;2023-07-13T04:14:09;2.40;;;1.87;;
11211;SDS011;5663;50.864;12.096;2023-07-13T04:16:38;2.77;;;1.80;;
11211;SDS011;5663;50.864;12.096;2023-07-13T04:19:08;4.23;;;2.07;;
11211;SDS011;5663;50.864;12.096;2023-07-13T04:21:44;4.03;;;2.27;;
11211;SDS011;5663;50.864;12.096;2023-07-13T04:24:12;3.37;;;2.30;;
11211;SDS011;5663;50.864;12.096;2023-07-13T04:34:34;3.07;;;2.20;;
11211;SDS011;5663;50.864;12.096;2023-07-13T04:45:46;4.47;;;2.30;;
11211;SDS011;5663;50.864;12.096;2023-07-13T04:48:23;6.37;;;2.30;;
11211;SDS011;5663;50.864;12.096;2023-07-13T04:50:58;2.50;;;1.73;;
11211;SDS011;5663;50.864;12.096;2023-07-13T04:53:28;5.23;;;2.20;;
11211;SDS011;5663;50.864;12.096;2023-07-13T04:56:04;3.43;;;2.20;;
11211;SDS011;5663;50.864;12.096;2023-07-13T04:58:39;3.47;;;2.10;;
11211;SDS011;5663;50.864;12.096;2023-07-13T05:01:11;3.57;;;1.90;;
11211;SDS011;5663;50.864;12.096;2023-07-13T05:03:48;3.10;;;1.83;;
11211;SDS011;5663;50.864;12.096;2023-07-13T05:07:05;4.90;;;2.10;;
11211;SDS011;5663;50.864;12.096;2023-07-13T05:09:48;2.40;;;1.73;;
11211;SDS011;5663;50.864;12.096;2023-07-13T05:12:33;4.03;;;1.90;;
11211;SDS011;5663;50.864;12.096;2023-07-13T05:15:20;11.03;;;2.40;;
11211;SDS011;5663;50.864;12.096;2023-07-13T05:18:06;2.20;;;1.70;;
11211;SDS011;5663;50.864;12.096;2023-07-13T05:21:00;4.10;;;2.17;;
11211;SDS011;5663;50.864;12.096;2023-07-13T05:23:40;4.53;;;2.17;;
11211;SDS011;5663;50.864;12.096;2023-07-13T05:26:20;4.70;;;2.00;;
11211;SDS011;5663;50.864;12.096;2023-07-13T05:29:08;2.93;;;1.70;;
11211;SDS011;5663;50.864;12.096;2023-07-13T05:31:45;2.17;;;1.77;;
11211;SDS011;5663;50.864;12.096;2023-07-13T05:34:21;3.92;;;2.00;;
11211;SDS011;5663;50.864;12.096;2023-07-13T05:36:56;41.05;;;4.72;;
11211;SDS011;5663;50.864;12.096;2023-07-13T05:39:48;3.83;;;1.83;;
11211;SDS011;5663;50.864;12.096;2023-07-13T05:42:30;2.88;;;1.73;;
11211;SDS011;5663;50.864;12.096;2023-07-13T05:45:10;7.68;;;2.00;;
11211;SDS011;5663;50.864;12.096;2023-07-13T05:47:42;2.72;;;2.00;;
11211;SDS011;5663;50.864;12.096;2023-07-13T05:50:28;6.07;;;2.00;;
11211;SDS011;5663;50.864;12.096;2023-07-13T05:53:01;5.43;;;2.28;;
11211;SDS011;5663;50.864;12.096;2023-07-13T05:55:35;6.47;;;1.98;;
11211;SDS011;5663;50.864;12.096;2023-07-13T05:58:24;3.58;;;2.10;;
11211;SDS011;5663;50.864;12.096;2023-07-13T06:01:03;3.50;;;1.90;;
11211;SDS011;5663;50.864;12.096;2023-07-13T06:03:42;6.40;;;2.20;;
11211;SDS011;5663;50.864;12.096;2023-07-13T06:06:19;3.20;;;1.83;;
11211;SDS011;5663;50.864;12.096;2023-07-13T06:08:50;4.22;;;1.88;;
11211;SDS011;5663;50.864;12.096;2023-07-13T06:11:30;6.18;;;2.22;;
11211;SDS011;5663;50.864;12.096;2023-07-13T06:14:07;2.42;;;1.70;;
11211;SDS011;5663;50.864;12.096;2023-07-13T06:24:57;2.95;;;2.10;;
11211;SDS011;5663;50.864;12.096;2023-07-13T06:27:40;3.92;;;2.17;;
11211;SDS011;5663;50.864;12.096;2023-07-13T06:34:36;4.22;;;2.15;;
11211;SDS011;5663;50.864;12.096;2023-07-13T06:37:37;4.60;;;2.08;;
11211;SDS011;5663;50.864;12.096;2023-07-13T06:40:08;4.82;;;2.30;;
11211;SDS011;5663;50.864;12.096;2023-07-13T06:42:41;4.68;;;2.25;;
11211;SDS011;5663;50.864;12.096;2023-07-13T06:45:18;5.18;;;2.25;;
11211;SDS011;5663;50.864;12.096;2023-07-13T06:47:47;3.22;;;2.00;;
11211;SDS011;5663;50.864;12.096;2023-07-13T06:50:18;5.82;;;2.10;;
11211;SDS011;5663;50.864;12.096;2023-07-13T06:52:59;4.82;;;2.30;;
11211;SDS011;5663;50.864;12.096;2023-07-13T06:55:46;5.13;;;1.88;;
11211;SDS011;5663;50.864;12.096;2023-07-13T06:58:19;4.70;;;2.45;;
11211;SDS011;5663;50.864;12.096;2023-07-13T07:00:50;2.63;;;1.90;;
11211;SDS011;5663;50.864;12.096;2023-07-13T07:03:20;3.80;;;2.30;;
11211;SDS011;5663;50.864;12.096;2023-07-13T07:05:49;3.88;;;1.80;;
11211;SDS011;5663;50.864;12.096;2023-07-13T07:08:20;5.80;;;2.17;;
11211;SDS011;5663;50.864;12.096;2023-07-13T07:11:05;6.00;;;2.05;;
11211;SDS011;5663;50.864;12.096;2023-07-13T07:14:04;4.18;;;2.03;;
11211;SDS011;5663;50.864;12.096;2023-07-13T07:16:37;5.53;;;2.08;;
11211;SDS011;5663;50.864;12.096;2023-07-13T07:19:15;4.97;;;1.98;;
11211;SDS011;5663;50.864;12.096;2023-07-13T07:21:50;6.20;;;2.08;;
11211;SDS011;5663;50.864;12.096;2023-07-13T07:24:26;2.83;;;2.00;;
11211;SDS011;5663;50.864;12.096;2023-07-13T07:26:55;3.05;;;1.90;;
11211;SDS011;5663;50.864;12.096;2023-07-13T07:29:38;4.47;;;2.17;;
11211;SDS011;5663;50.864;12.096;2023-07-13T07:32:29;3.78;;;2.03;;
11211;SDS011;5663;50.864;12.096;2023-07-13T07:34:58;3.40;;;1.70;;
11211;SDS011;5663;50.864;12.096;2023-07-13T07:37:28;3.50;;;2.17;;
11211;SDS011;5663;50.864;12.096;2023-07-13T07:39:59;4.05;;;2.22;;
11211;SDS011;5663;50.864;12.096;2023-07-13T07:42:34;4.38;;;2.35;;
11211;SDS011;5663;50.864;12.096;2023-07-13T07:45:11;3.45;;;2.28;;
11211;SDS011;5663;50.864;12.096;2023-07-13T07:47:45;4.80;;;1.88;;
11211;SDS011;5663;50.864;12.096;2023-07-13T07:50:18;3.65;;;2.03;;
11211;SDS011;5663;50.864;12.096;2023-07-13T07:52:52;4.57;;;2.17;;
11211;SDS011;5663;50.864;12.096;2023-07-13T07:55:22;3.15;;;1.90;;
11211;SDS011;5663;50.864;12.096;2023-07-13T07:57:53;7.07;;;2.08;;
11211;SDS011;5663;50.864;12.096;2023-07-13T08:00:35;2.28;;;2.03;;
11211;SDS011;5663;50.864;12.096;2023-07-13T08:03:04;7.85;;;2.10;;
11211;SDS011;5663;50.864;12.096;2023-07-13T08:05:35;3.10;;;2.10;;
11211;SDS011;5663;50.864;12.096;2023-07-13T08:08:05;3.47;;;2.20;;
11211;SDS011;5663;50.864;12.096;2023-07-13T08:10:35;4.60;;;2.00;;
11211;SDS011;5663;50.864;12.096;2023-07-13T08:13:05;6.03;;;2.17;;
11211;SDS011;5663;50.864;12.096;2023-07-13T08:15:35;2.97;;;1.70;;
11211;SDS011;5663;50.864;12.096;2023-07-13T08:18:07;2.85;;;1.88;;
11211;SDS011;5663;50.864;12.096;2023-07-13T08:20:36;3.03;;;1.95;;
11211;SDS011;5663;50.864;12.096;2023-07-13T08:23:07;3.33;;;1.90;;
11211;SDS011;5663;50.864;12.096;2023-07-13T08:25:38;5.82;;;2.00;;
11211;SDS011;5663;50.864;12.096;2023-07-13T08:28:07;3.42;;;1.80;;
11211;SDS011;5663;50.864;12.096;2023-07-13T08:30:38;27.52;;;3.40;;
11211;SDS011;5663;50.864;12.096;2023-07-13T08:33:09;4.00;;;1.63;;
11211;SDS011;5663;50.864;12.096;2023-07-13T08:35:37;5.50;;;2.05;;
11211;SDS011;5663;50.864;12.096;2023-07-13T08:38:07;3.45;;;1.80;;
11211;SDS011;5663;50.864;12.096;2023-07-13T08:40:35;2.47;;;1.52;;
11211;SDS011;5663;50.864;12.096;2023-07-13T08:43:03;2.00;;;1.63;;
11211;SDS011;5663;50.864;12.096;2023-07-13T08:45:33;2.97;;;2.03;;
11211;SDS011;5663;50.864;12.096;2023-07-13T08:48:14;2.05;;;1.73;;
11211;SDS011;5663;50.864;12.096;2023-07-13T08:50:51;6.82;;;1.92;;
11211;SDS011;5663;50.864;12.096;2023-07-13T08:57:31;2.10;;;1.80;;
11211;SDS011;5663;50.864;12.096;2023-07-13T09:00:07;3.92;;;1.90;;
11211;SDS011;5663;50.864;12.096;2023-07-13T09:02:48;2.97;;;1.83;;
11211;SDS011;5663;50.864;12.096;2023-07-13T09:37:56;5.25;;;1.95;;
11211;SDS011;5663;50.864;12.096;2023-07-13T09:44:53;5.70;;;2.05;;
11211;SDS011;5663;50.864;12.096;2023-07-13T09:47:54;3.55;;;1.90;;
11211;SDS011;5663;50.864;12.096;2023-07-13T09:50:32;4.40;;;1.98;;
11211;SDS011;5663;50.864;12.096;2023-07-13T10:04:26;12.73;;;2.17;;
11211;SDS011;5663;50.864;12.096;2023-07-13T11:52:20;4.30;;;1.05;;
11211;SDS011;5663;50.864;12.096;2023-07-13T11:58:26;1.05;;;0.95;;
11211;SDS011;5663;50.864;12.096;2023-07-13T12:01:03;2.10;;;1.40;;
11211;SDS011;5663;50.864;12.096;2023-07-13T12:03:33;1.15;;;1.05;;
11211;SDS011;5663;50.864;12.096;2023-07-13T12:06:05;1.67;;;0.90;;
11211;SDS011;5663;50.864;12.096;2023-07-13T12:08:50;2.42;;;1.10;;
11211;SDS011;5663;50.864;12.096;2023-07-13T12:11:20;2.17;;;0.90;;
11211;SDS011;5663;50.864;12.096;2023-07-13T12:14:00;0.95;;;0.85;;
11211;SDS011;5663;50.864;12.096;2023-07-13T12:17:08;2.28;;;1.20;;
11211;SDS011;5663;50.864;12.096;2023-07-13T12:20:12;1.30;;;1.10;;
11211;SDS011;5663;50.864;12.096;2023-07-13T12:22:50;2.03;;;1.00;;
11211;SDS011;5663;50.864;12.096;2023-07-13T12:25:57;2.92;;;1.25;;
11211;SDS011;5663;50.864;12.096;2023-07-13T12:28:33;1.33;;;0.98;;
11211;SDS011;5663;50.864;12.096;2023-07-13T12:31:22;1.23;;;1.10;;
11211;SDS011;5663;50.864;12.096;2023-07-13T12:37:50;2.05;;;1.10;;
11211;SDS011;5663;50.864;12.096;2023-07-13T12:40:40;2.17;;;0.88;;
11211;SDS011;5663;50.864;12.096;2023-07-13T12:46:39;3.40;;;0.95;;
11211;SDS011;5663;50.864;12.096;2023-07-13T12:53:40;0.80;;;0.80;;
11211;SDS011;5663;50.864;12.096;2023-07-13T12:56:26;0.80;;;0.65;;
11211;SDS011;5663;50.864;12.096;2023-07-13T13:23:21;1.40;;;0.98;;
11211;SDS011;5663;50.864;12.096;2023-07-13T13:26:01;1.17;;;1.00;;
11211;SDS011;5663;50.864;12.096;2023-07-13T13:29:18;2.63;;;1.40;;
11211;SDS011;5663;50.864;12.096;2023-07-13T13:35:04;0.85;;;0.82;;
11211;SDS011;5663;50.864;12.096;2023-07-13T13:38:29;5.63;;;1.08;;
11211;SDS011;5663;50.864;12.096;2023-07-13T13:52:12;4.00;;;1.30;;
11211;SDS011;5663;50.864;12.096;2023-07-13T13:54:46;2.10;;;1.30;;
11211;SDS011;5663;50.864;12.096;2023-07-13T14:00:40;4.20;;;1.17;;
11211;SDS011;5663;50.864;12.096;2023-07-13T14:03:13;1.67;;;1.13;;
11211;SDS011;5663;50.864;12.096;2023-07-13T14:05:51;1.70;;;1.17;;
11211;SDS011;5663;50.864;12.096;2023-07-13T14:08:24;0.88;;;0.88;;
11211;SDS011;5663;50.864;12.096;2023-07-13T14:10:56;1.50;;;0.93;;
11211;SDS011;5663;50.864;12.096;2023-07-13T14:13:27;2.88;;;1.20;;
11211;SDS011;5663;50.864;12.096;2023-07-13T14:26:50;1.95;;;1.10;;
11211;SDS011;5663;50.864;12.096;2023-07-13T14:47:16;5.35;;;1.35;;
11211;SDS011;5663;50.864;12.096;2023-07-13T14:56:12;1.42;;;1.00;;
11211;SDS011;5663;50.864;12.096;2023-07-13T16:56:50;2.30;;;1.00;;
11211;SDS011;5663;50.864;12.096;2023-07-13T17:00:18;0.82;;;0.80;;
11211;SDS011;5663;50.864;12.096;2023-07-13T17:02:53;1.60;;;0.82;;
11211;SDS011;5663;50.864;12.096;2023-07-13T17:05:39;1.42;;;0.95;;
11211;SDS011;5663;50.864;12.096;2023-07-13T17:08:28;1.20;;;0.85;;
11211;SDS011;5663;50.864;12.096;2023-07-13T17:11:02;1.15;;;0.90;;
11211;SDS011;5663;50.864;12.096;2023-07-13T17:13:36;3.78;;;1.27;;
11211;SDS011;5663;50.864;12.096;2023-07-13T17:16:08;1.15;;;0.82;;
11211;SDS011;5663;50.864;12.096;2023-07-13T17:18:43;4.30;;;1.10;;
11211;SDS011;5663;50.864;12.096;2023-07-13T17:21:16;2.10;;;1.20;;
11211;SDS011;5663;50.864;12.096;2023-07-13T17:26:47;1.90;;;1.20;;
11211;SDS011;5663;50.864;12.096;2023-07-13T17:34:06;3.67;;;1.02;;
11211;SDS011;5663;50.864;12.096;2023-07-13T17:46:54;1.10;;;1.00;;
11211;SDS011;5663;50.864;12.096;2023-07-13T17:50:28;1.73;;;1.20;;
11211;SDS011;5663;50.864;12.096;2023-07-13T19:27:53;1.92;;;1.48;;
11211;SDS011;5663;50.864;12.096;2023-07-13T19:43:53;6.28;;;1.40;;
11211;SDS011;5663;50.864;12.096;2023-07-13T19:47:25;2.75;;;1.55;;
11211;SDS011;5663;50.864;12.096;2023-07-13T19:50:36;2.92;;;1.70;;
11211;SDS011;5663;50.864;12.096;2023-07-13T19:53:35;1.85;;;1.20;;
11211;SDS011;5663;50.864;12.096;2023-07-13T19:56:30;1.83;;;1.50;;
11211;SDS011;5663;50.864;12.096;2023-07-13T20:12:20;3.17;;;1.48;;
11211;SDS011;5663;50.864;12.096;2023-07-13T20:18:43;2.90;;;1.27;;
11211;SDS011;5663;50.864;12.096;2023-07-13T20:21:42;1.73;;;1.40;;
11211;SDS011;5663;50.864;12.096;2023-07-13T20:56:30;4.85;;;1.27;;
11211;SDS011;5663;50.864;12.096;2023-07-13T22:22:40;6.07;;;2.53;;
11211;SDS011;5663;50.864;12.096;2023-07-13T22:32:35;5.03;;;2.33;;
11211;SDS011;5663;50.864;12.096;2023-07-13T22:35:25;2.27;;;1.73;;
11211;SDS011;5663;50.864;12.096;2023-07-13T22:38:15;3.03;;;2.10;;
11211;SDS011;5663;50.864;12.096;2023-07-13T22:40:55;3.30;;;2.27;;
11211;SDS011;5663;50.864;12.096;2023-07-13T22:43:52;4.03;;;2.27;;
11211;SDS011;5663;50.864;12.096;2023-07-13T22:46:25;3.27;;;2.13;;
11211;SDS011;5663;50.864;12.096;2023-07-13T22:49:00;2.93;;;1.93;;
11211;SDS011;5663;50.864;12.096;2023-07-13T22:51:45;4.13;;;2.10;;
11211;SDS011;5663;50.864;12.096;2023-07-13T22:54:17;4.23;;;2.40;;
11211;SDS011;5663;50.864;12.096;2023-07-13T22:56:54;2.93;;;2.30;;
11211;SDS011;5663;50.864;12.096;2023-07-13T22:59:28;4.20;;;2.10;;
11211;SDS011;5663;50.864;12.096;2023-07-13T23:01:58;4.00;;;2.70;;
11211;SDS011;5663;50.864;12.096;2023-07-13T23:04:33;2.90;;;2.27;;
11211;SDS011;5663;50.864;12.096;2023-07-13T23:07:24;3.03;;;1.93;;
11211;SDS011;5663;50.864;12.096;2023-07-13T23:09:59;4.10;;;2.10;;
11211;SDS011;5663;50.864;12.096;2023-07-13T23:12:41;4.13;;;2.57;;
11211;SDS011;5663;50.864;12.096;2023-07-13T23:15:51;3.07;;;2.30;;
11211;SDS011;5663;50.864;12.096;2023-07-13T23:18:25;3.03;;;2.20;;
11211;SDS011;5663;50.864;12.096;2023-07-13T23:21:16;4.70;;;2.30;;
11211;SDS011;5663;50.864;12.096;2023-07-13T23:24:12;3.20;;;1.80;;
11211;SDS011;5663;50.864;12.096;2023-07-13T23:27:02;5.00;;;2.70;;
11211;SDS011;5663;50.864;12.096;2023-07-13T23:29:53;2.93;;;2.17;;
11211;SDS011;5663;50.864;12.096;2023-07-13T23:32:56;3.30;;;2.07;;
11211;SDS011;5663;50.864;12.096;2023-07-13T23:35:32;3.50;;;2.10;;
11211;SDS011;5663;50.864;12.096;2023-07-13T23:38:04;3.73;;;2.20;;
11211;SDS011;5663;50.864;12.096;2023-07-13T23:40:40;3.13;;;2.30;;
11211;SDS011;5663;50.864;12.096;2023-07-13T23:43:14;2.40;;;2.20;;
11211;SDS011;5663;50.864;12.096;2023-07-13T23:45:48;2.50;;;1.80;;
11211;SDS011;5663;50.864;12.096;2023-07-13T23:48:37;4.90;;;2.50;;
11211;SDS011;5663;50.864;12.096;2023-07-13T23:54:52;3.67;;;2.87;;
11211;SDS011;5663;50.864;12.096;2023-07-13T23:57:44;5.27;;;2.43;;
